Time;durP1;ratioP1;P1;durP2;ratioP2;P2;SDS_P1;SDS_P2;PMS_P1;PMS_P2;Temp;Humidity;BMP_temperature;BMP_pressure;BME280_temperature;BME280_humidity;BME280_pressure;Samples;Min_cycle;Max_cycle;Signal;HPM_P1;HPM_P2
2021/12/05 00:20:56;;;;;;;17.95;11.45;;;;;;;3.16;100.00;98873.66;5187737;28;20583;-79
2021/12/05 00:23:32;;;;;;;18.65;10.95;;;;;;;3.18;100.00;98872.69;5183625;28;20026;-80
2021/12/05 00:26:05;;;;;;;18.85;11.20;;;;;;;3.18;100.00;98879.59;5193519;28;20036;-79
2021/12/05 00:34:15;;;;;;;17.40;10.75;;;;;;;3.24;100.00;98889.72;5191250;28;20060;-80
2021/12/05 00:56:03;;;;;;;13.85;8.05;;;;;;;3.40;100.00;98885.72;5192056;28;20103;-78
2021/12/05 01:04:26;;;;;;;8.85;5.90;;;;;;;3.55;100.00;98887.78;5186329;28;20511;-79
2021/12/05 01:09:43;;;;;;;8.88;5.47;;;;;;;3.77;100.00;98890.41;5196694;28;20092;-79
2021/12/05 01:17:38;;;;;;;9.30;5.70;;;;;;;3.82;100.00;98895.41;5186287;28;20468;-79
2021/12/05 01:20:13;;;;;;;8.98;5.60;;;;;;;3.78;100.00;98906.75;5185110;28;20025;-79
2021/12/05 01:22:47;;;;;;;8.95;5.65;;;;;;;3.75;100.00;98912.84;5183459;28;20045;-79
2021/12/05 01:28:03;;;;;;;9.30;6.15;;;;;;;3.81;100.00;98925.56;5194250;28;20029;-80
2021/12/05 01:30:39;;;;;;;9.45;6.45;;;;;;;3.89;100.00;98926.13;5187513;28;20047;-80
2021/12/05 01:33:19;;;;;;;8.68;5.88;;;;;;;3.90;100.00;98927.81;5187542;28;20030;-79
2021/12/05 02:31:58;;;;;;;11.48;6.60;;;;;;;4.12;100.00;98970.09;5183187;28;20040;-79
2021/12/05 02:34:41;;;;;;;10.85;6.50;;;;;;;4.12;100.00;98972.69;5186528;28;20542;-78
2021/12/05 02:40:28;;;;;;;10.02;6.43;;;;;;;4.07;100.00;98966.84;5157569;28;20045;-78
2021/12/05 02:43:08;;;;;;;12.68;6.60;;;;;;;4.01;100.00;98967.06;5194364;28;20041;-79
2021/12/05 02:45:45;;;;;;;11.10;6.70;;;;;;;4.00;100.00;98970.53;5186268;28;20072;-78
2021/12/05 02:48:16;;;;;;;13.20;7.07;;;;;;;3.98;100.00;98987.81;5193110;28;20028;-78
2021/12/05 02:50:46;;;;;;;10.40;7.00;;;;;;;3.95;100.00;98992.25;5189704;28;20025;-78
2021/12/05 02:53:28;;;;;;;9.10;6.05;;;;;;;3.92;100.00;98988.03;5190094;28;20406;-79
2021/12/05 02:55:59;;;;;;;9.85;6.45;;;;;;;3.92;100.00;98988.03;5192355;28;20061;-81
2021/12/05 02:58:44;;;;;;;10.43;6.45;;;;;;;3.91;100.00;98985.50;5190603;28;20017;-82
2021/12/05 03:01:30;;;;;;;10.40;6.50;;;;;;;3.96;100.00;98988.78;5185951;28;20069;-79
2021/12/05 03:04:01;;;;;;;;;;;;;;;3.93;100.00;98988.91;5190099;28;20034;-79
2021/12/05 03:06:33;;;;;;;11.98;6.43;;;;;;;3.92;100.00;98989.78;5188575;28;19924;-78
2021/12/05 03:09:12;;;;;;;9.98;6.15;;;;;;;4.00;100.00;98998.97;5181746;28;20079;-79
2021/12/05 03:11:45;;;;;;;9.93;6.35;;;;;;;3.98;100.00;98997.31;5187136;28;20052;-79
2021/12/05 03:14:16;;;;;;;12.85;7.47;;;;;;;4.05;100.00;99007.41;5192727;28;20841;-78
2021/12/05 03:16:46;;;;;;;13.18;7.50;;;;;;;4.02;100.00;99015.25;5190153;28;20038;-78
2021/12/05 03:19:17;;;;;;;12.57;7.55;;;;;;;3.98;100.00;99020.56;5193769;28;20026;-78
2021/12/05 03:21:50;;;;;;;12.57;7.45;;;;;;;3.95;100.00;99025.84;5192966;28;20029;-78
2021/12/05 03:24:22;;;;;;;12.80;7.65;;;;;;;4.02;100.00;99022.16;5191600;28;20018;-78
2021/12/05 03:26:53;;;;;;;11.40;7.20;;;;;;;3.97;100.00;99022.31;5190414;28;20040;-79
2021/12/05 03:29:24;;;;;;;12.18;6.82;;;;;;;4.00;100.00;99027.41;5182774;28;20049;-82
2021/12/05 03:31:56;;;;;;;14.95;8.13;;;;;;;4.02;100.00;99035.06;5185602;28;20630;-78
2021/12/05 03:34:27;;;;;;;13.15;7.78;;;;;;;4.00;100.00;99037.72;5184850;28;20026;-78
2021/12/05 03:36:57;;;;;;;16.27;9.10;;;;;;;4.01;100.00;99043.72;5192876;28;20118;-78
2021/12/05 03:39:28;;;;;;;14.63;9.15;;;;;;;4.01;100.00;99044.59;5191569;28;20052;-80
2021/12/05 03:41:58;;;;;;;16.23;7.93;;;;;;;4.06;100.00;99037.50;5193279;28;20033;-80
2021/12/05 03:44:37;;;;;;;14.23;8.50;;;;;;;4.03;100.00;99041.94;5190063;28;20061;-79
2021/12/05 03:47:08;;;;;;;16.83;8.60;;;;;;;4.05;100.00;99045.31;5192281;28;20026;-79
2021/12/05 03:49:39;;;;;;;12.40;7.78;;;;;;;4.06;100.00;99054.75;5185428;28;20038;-80
2021/12/05 03:52:14;;;;;;;16.92;8.98;;;;;;;4.01;100.00;99057.50;5192736;28;20394;-80
2021/12/05 03:54:46;;;;;;;14.65;9.18;;;;;;;4.10;100.00;99064.94;5191808;28;20040;-81
2021/12/05 03:57:17;;;;;;;14.70;9.40;;;;;;;4.07;100.00;99070.22;5186638;28;20044;-79
2021/12/05 03:59:47;;;;;;;18.60;9.32;;;;;;;4.06;100.00;99076.28;5183558;28;20538;-79
2021/12/05 04:02:17;;;;;;;18.08;9.98;;;;;;;4.07;100.00;99080.53;5188928;28;20025;-78
2021/12/05 04:04:50;;;;;;;19.83;11.15;;;;;;;4.12;100.00;99083.81;5195429;28;20052;-80
2021/12/05 04:07:20;;;;;;;23.52;11.40;;;;;;;4.16;100.00;99090.56;5189787;28;20654;-79
2021/12/05 04:09:50;;;;;;;19.02;11.73;;;;;;;4.20;100.00;99088.72;5191074;28;20112;-80
2021/12/05 04:12:21;;;;;;;22.30;11.23;;;;;;;4.25;100.00;99085.09;5186389;28;20040;-79
2021/12/05 04:14:54;;;;;;;23.50;13.07;;;;;;;4.29;100.00;99084.09;5190786;28;20045;-80
2021/12/05 04:17:26;;;;;;;20.90;11.82;;;;;;;4.33;100.00;99098.59;5192202;28;20593;-78
2021/12/05 04:19:57;;;;;;;22.98;12.02;;;;;;;4.32;100.00;99096.06;5191203;28;20443;-80
2021/12/05 04:22:27;;;;;;;21.30;12.27;;;;;;;4.35;100.00;99093.38;5197562;28;20037;-79
2021/12/05 04:24:58;;;;;;;23.10;12.30;;;;;;;4.44;100.00;99100.84;5192838;28;20026;-80
2021/12/05 04:27:28;;;;;;;24.70;12.77;;;;;;;4.42;100.00;99098.28;5190972;28;20026;-81
2021/12/05 04:29:59;;;;;;;23.80;12.73;;;;;;;4.40;100.00;99102.66;5185867;28;20033;-80
2021/12/05 04:32:29;;;;;;;22.30;12.65;;;;;;;4.40;100.00;99094.06;5191975;28;20105;-79
2021/12/05 04:35:00;;;;;;;21.88;12.35;;;;;;;4.39;100.00;99090.63;5189294;28;20141;-81
2021/12/05 04:37:30;;;;;;;21.38;11.75;;;;;;;4.36;100.00;99084.72;5189133;28;20399;-80
2021/12/05 04:40:01;;;;;;;22.88;12.10;;;;;;;4.40;100.00;99094.91;5192516;28;20076;-81
2021/12/05 04:42:32;;;;;;;24.95;12.38;;;;;;;4.48;100.00;99097.22;5193526;28;20037;-79
2021/12/05 04:45:10;;;;;;;23.75;11.95;;;;;;;4.45;100.00;99092.19;5193319;28;20057;-80
2021/12/05 04:47:42;;;;;;;26.52;12.00;;;;;;;4.43;100.00;99102.56;5185180;28;20537;-81
2021/12/05 04:50:14;;;;;;;22.50;10.65;;;;;;;4.39;100.00;99100.13;5194022;28;20033;-81
2021/12/05 04:52:45;;;;;;;23.00;10.30;;;;;;;4.36;100.00;99101.09;5196280;28;20108;-78
2021/12/05 04:55:18;;;;;;;22.35;10.77;;;;;;;4.43;100.00;99099.97;5175400;28;20129;-80
2021/12/05 04:57:48;;;;;;;18.65;9.43;;;;;;;4.48;100.00;99105.00;5190219;28;20033;-81
2021/12/05 05:00:27;;;;;;;17.92;9.30;;;;;;;4.39;100.00;99102.72;5189839;28;20422;-80
2021/12/05 05:02:57;;;;;;;15.02;8.55;;;;;;;4.36;100.00;99108.84;5191553;28;20048;-79
2021/12/05 05:05:28;;;;;;;14.73;8.55;;;;;;;4.37;100.00;99110.53;5193760;28;20022;-80
2021/12/05 05:07:59;;;;;;;16.02;8.00;;;;;;;4.33;100.00;99114.09;5186586;28;20112;-81
2021/12/05 05:10:33;;;;;;;17.67;7.57;;;;;;;4.36;100.00;99108.00;5176445;28;20128;-80
2021/12/05 05:13:04;;;;;;;16.75;6.13;;;;;;;4.43;100.00;99112.91;5189296;28;20033;-80
2021/12/05 05:15:35;;;;;;;11.90;5.75;;;;;;;4.46;100.00;99110.19;5188661;28;20051;-80
2021/12/05 05:18:07;;;;;;;17.00;5.72;;;;;;;4.46;100.00;99110.19;5196431;28;20021;-80
2021/12/05 05:20:46;;;;;;;11.30;4.53;;;;;;;4.45;100.00;99118.84;5183573;28;20034;-81
2021/12/05 05:47:59;;;;;;;8.20;4.13;;;;;;;3.62;100.00;99154.34;5201042;28;20418;-79
2021/12/05 05:50:29;;;;;;;10.30;4.30;;;;;;;3.57;100.00;99154.53;5193843;28;20030;-81
2021/12/05 05:52:59;;;;;;;8.35;4.00;;;;;;;3.53;100.00;99152.94;5198700;28;20021;-80
2021/12/05 05:55:29;;;;;;;12.45;4.20;;;;;;;3.50;100.00;99155.63;5199116;28;20104;-80
2021/12/05 05:58:09;;;;;;;10.23;4.22;;;;;;;3.40;100.00;99167.94;5201289;28;20036;-80
2021/12/05 06:01:01;;;;;;;10.65;4.38;;;;;;;3.38;100.00;99168.91;5177299;28;20057;-81
2021/12/05 06:03:32;;;;;;;10.50;4.43;;;;;;;3.32;100.00;99171.63;5202570;28;20276;-80
2021/12/05 06:06:08;;;;;;;6.45;3.92;;;;;;;3.25;100.00;99176.16;5202988;28;20181;-80
2021/12/05 06:08:39;;;;;;;8.57;4.30;;;;;;;3.25;100.00;99177.88;5194362;28;20026;-80
2021/12/05 06:11:13;;;;;;;9.45;4.20;;;;;;;3.23;100.00;99174.50;5202444;28;20028;-81
2021/12/05 06:13:45;;;;;;;8.15;3.92;;;;;;;3.26;100.00;99180.44;5197952;28;20107;-82
2021/12/05 06:16:16;;;;;;;10.73;4.00;;;;;;;3.24;100.00;99177.06;5203028;28;20159;-80
2021/12/05 06:18:47;;;;;;;6.97;4.13;;;;;;;3.28;100.00;99175.19;5198656;28;20077;-81
2021/12/05 06:21:18;;;;;;;6.88;3.70;;;;;;;3.34;100.00;99172.47;5185481;28;20480;-80
2021/12/05 06:23:49;;;;;;;7.50;4.13;;;;;;;3.48;100.00;99180.63;5181821;28;20033;-81
2021/12/05 06:26:21;;;;;;;8.70;4.40;;;;;;;3.36;100.00;99183.59;5184517;28;20417;-81
2021/12/05 06:29:20;;;;;;;11.00;3.70;;;;;;;3.35;100.00;99184.47;5170328;28;20661;-81
2021/12/05 06:32:20;;;;;;;9.90;3.85;;;;;;;3.36;100.00;99186.16;5190795;28;20022;-80
2021/12/05 06:37:49;;;;;;;9.85;3.92;;;;;;;3.29;100.00;99197.53;5187803;28;20107;-81
2021/12/05 06:40:37;;;;;;;7.38;3.78;;;;;;;3.28;100.00;99199.28;5194918;28;20052;-80
2021/12/05 06:48:53;;;;;;;6.78;3.55;;;;;;;3.16;100.00;99206.53;5192774;28;20038;-81
2021/12/05 06:51:28;;;;;;;5.60;3.20;;;;;;;3.12;100.00;99210.94;5192158;28;20033;-79
2021/12/05 06:53:58;;;;;;;6.07;3.83;;;;;;;3.10;100.00;99209.28;5191746;28;20507;-78
2021/12/05 06:56:29;;;;;;;9.18;3.65;;;;;;;3.12;100.00;99226.41;5190591;28;20026;-79
2021/12/05 06:59:00;;;;;;;6.60;3.20;;;;;;;3.06;100.00;99220.56;5189504;28;20508;-81
2021/12/05 07:01:30;;;;;;;8.63;3.50;;;;;;;2.87;100.00;99227.13;5189100;28;20058;-80
2021/12/05 07:04:09;;;;;;;6.25;3.58;;;;;;;2.85;100.00;99226.31;5184254;28;20064;-80
2021/12/05 07:06:41;;;;;;;7.95;3.30;;;;;;;2.82;100.00;99236.72;5184075;28;20025;-79
2021/12/05 07:09:11;;;;;;;8.20;3.70;;;;;;;2.80;100.00;99238.47;5183886;28;20030;-79
2021/12/05 07:23:12;;;;;;;7.57;3.80;;;;;;;3.02;100.00;99262.84;5185835;28;20502;-81
2021/12/05 07:25:48;;;;;;;7.55;3.90;;;;;;;3.00;100.00;99270.59;5186752;28;20041;-80
2021/12/05 07:42:25;;;;;;;8.38;3.80;;;;;;;3.01;100.00;99287.78;5189796;28;20033;-81
2021/12/05 07:45:01;;;;;;;9.52;3.58;;;;;;;3.07;100.00;99302.25;5192036;28;20128;-81
2021/12/05 07:47:33;;;;;;;7.43;3.42;;;;;;;3.06;100.00;99306.56;5189849;28;20535;-80
2021/12/05 07:50:08;;;;;;;8.35;3.25;;;;;;;3.19;100.00;99317.44;5190730;28;20494;-81
2021/12/05 07:52:46;;;;;;;6.63;3.58;;;;;;;3.08;100.00;99322.88;5186228;28;20571;-81
2021/12/05 07:55:23;;;;;;;9.70;3.67;;;;;;;3.06;100.00;99339.25;5194228;28;20039;-81
2021/12/05 07:58:08;;;;;;;6.90;3.10;;;;;;;3.41;100.00;99334.03;5191033;28;20034;-80
2021/12/05 08:01:15;;;;;;;9.05;3.17;;;;;;;3.73;100.00;99340.84;5182629;28;20379;-81
2021/12/05 08:15:14;;;;;;;7.93;3.42;;;;;;;3.56;100.00;99355.09;5185785;28;20076;-80
2021/12/05 08:17:51;;;;;;;6.55;4.00;;;;;;;3.61;100.00;99356.69;5192731;28;20114;-79
2021/12/05 08:20:30;;;;;;;8.55;4.18;;;;;;;3.66;100.00;99367.75;5185953;28;20026;-80
2021/12/05 08:23:02;;;;;;;7.05;4.57;;;;;;;3.60;100.00;99367.91;5184711;28;20033;-78
2021/12/05 08:25:38;;;;;;;7.72;4.75;;;;;;;3.64;100.00;99374.66;5187616;28;20116;-80
2021/12/05 08:30:58;;;;;;;9.90;4.53;;;;;;;3.73;100.00;99378.75;5185735;28;20083;-80
2021/12/05 09:51:20;;;;;;;5.85;2.08;;;;;;;4.91;100.00;99477.81;5178167;28;20029;-79
2021/12/05 10:02:37;;;;;;;5.45;1.67;;;;;;;4.90;100.00;99483.91;5190638;28;20037;-78
2021/12/05 10:16:15;;;;;;;;;;;;;;;4.93;100.00;99479.50;5188661;28;20045;-80
2021/12/05 10:36:02;;;;;;;7.72;2.80;;;;;;;5.38;100.00;99501.38;5188659;28;20558;-80
2021/12/05 10:38:46;;;;;;;8.50;3.53;;;;;;;5.42;100.00;99487.41;5186979;28;20036;-80
2021/12/05 10:43:56;;;;;;;8.93;3.25;;;;;;;5.40;100.00;99502.16;5191736;28;20030;-80
2021/12/05 10:46:29;;;;;;;9.63;3.28;;;;;;;5.40;100.00;99503.00;5189598;28;20435;-80
2021/12/05 10:49:04;;;;;;;10.60;3.70;;;;;;;5.45;100.00;99502.84;5187738;28;20106;-81
2021/12/05 10:51:38;;;;;;;11.37;3.40;;;;;;;5.41;100.00;99509.03;5179815;28;20053;-80
2021/12/05 10:54:12;;;;;;;10.33;3.33;;;;;;;5.43;100.00;99509.81;5188330;28;20287;-80
2021/12/05 10:56:51;;;;;;;8.10;2.92;;;;;;;5.43;100.00;99509.81;5187263;28;20206;-80
2021/12/05 10:59:31;;;;;;;9.25;2.80;;;;;;;5.41;100.00;99511.63;5181615;28;20059;-80
2021/12/05 11:02:08;;;;;;;9.30;3.00;;;;;;;5.41;100.00;99524.56;5187557;28;20187;-80
2021/12/05 11:04:46;;;;;;;9.50;2.90;;;;;;;5.39;100.00;99523.78;5180172;28;20033;-80
2021/12/05 11:07:21;;;;;;;6.88;3.10;;;;;;;5.35;100.00;99527.34;5180240;28;20697;-80
2021/12/05 11:09:57;;;;;;;10.73;2.90;;;;;;;5.35;100.00;99532.53;5181396;28;20045;-81
2021/12/05 11:12:33;;;;;;;9.43;2.53;;;;;;;5.36;100.00;99531.63;5188958;28;21529;-81
2021/12/05 11:15:09;;;;;;;15.40;3.00;;;;;;;5.42;100.00;99531.44;5190938;28;20029;-79
2021/12/05 11:17:43;;;;;;;7.90;2.30;;;;;;;5.55;100.00;99528.41;5184358;28;20065;-80
2021/12/05 11:20:18;;;;;;;6.72;2.30;;;;;;;5.56;100.00;99530.09;5187039;28;20022;-79
2021/12/05 11:22:50;;;;;;;5.07;1.70;;;;;;;5.58;100.00;99530.06;5196875;28;20053;-79
2021/12/05 11:25:31;;;;;;;8.18;2.63;;;;;;;5.67;100.00;99534.94;5192029;28;20368;-80
2021/12/05 11:28:08;;;;;;;9.02;3.03;;;;;;;5.70;100.00;99532.25;5192652;28;20558;-80
2021/12/05 11:30:40;;;;;;;7.88;2.72;;;;;;;5.71;100.00;99537.38;5183691;28;20021;-80
2021/12/05 11:33:19;;;;;;;5.95;2.30;;;;;;;5.72;100.00;99536.47;5186210;28;20069;-80
2021/12/05 11:36:09;;;;;;;7.32;2.70;;;;;;;5.75;100.00;99540.72;5179320;28;20040;-80
2021/12/05 11:38:39;;;;;;;10.48;2.13;;;;;;;5.79;100.00;99537.16;5182135;28;20840;-80
2021/12/05 11:41:12;;;;;;;10.63;2.17;;;;;;;5.68;100.00;99545.25;5186138;28;20033;-79
2021/12/05 11:43:46;;;;;;;6.45;2.13;;;;;;;5.73;100.00;99543.38;5179032;28;20048;-80
2021/12/05 11:46:27;;;;;;;7.13;1.77;;;;;;;5.74;100.00;99534.69;5182756;28;20025;-80
2021/12/05 11:49:00;;;;;;;3.78;1.45;;;;;;;5.71;100.00;99533.97;5182543;28;20041;-80
2021/12/05 11:51:32;;;;;;;6.75;1.85;;;;;;;5.76;100.00;99532.88;5190438;28;20029;-80
2021/12/05 11:54:17;;;;;;;6.32;2.10;;;;;;;5.74;100.00;99534.69;5181460;28;20044;-80
2021/12/05 11:57:02;;;;;;;7.25;2.05;;;;;;;5.82;100.00;99519.78;5179995;28;20039;-78
2021/12/05 11:59:36;;;;;;;9.27;1.65;;;;;;;5.77;100.00;99531.16;5181657;28;20053;-80
2021/12/05 12:02:16;;;;;;;8.25;1.70;;;;;;;5.86;100.00;99530.88;5185321;28;20039;-80
2021/12/05 12:04:55;;;;;;;7.35;1.83;;;;;;;5.92;100.00;99522.91;5207017;22;20060;-80
2021/12/05 12:07:32;;;;;;;8.15;1.42;;;;;;;6.00;100.00;99523.47;5189386;28;20036;-78
2021/12/05 12:10:14;;;;;;;7.47;1.63;;;;;;;5.97;100.00;99532.22;5198598;28;20581;-78
2021/12/05 12:12:55;;;;;;;5.32;1.25;;;;;;;5.97;100.00;99531.38;5195115;28;20037;-80
2021/12/05 12:15:27;;;;;;;7.35;1.50;;;;;;;5.98;100.00;99535.66;5194356;28;20041;-77
2021/12/05 12:18:07;;;;;;;7.82;1.67;;;;;;;5.83;100.00;99528.38;5190031;28;20569;-80
2021/12/05 12:20:39;;;;;;;8.98;1.90;;;;;;;5.83;100.00;99534.44;5185753;28;20495;-79
2021/12/05 12:23:09;;;;;;;8.57;2.50;;;;;;;5.87;100.00;99527.38;5192929;28;20033;-78
2021/12/05 12:25:41;;;;;;;8.73;2.40;;;;;;;5.81;100.00;99533.63;5184894;28;20049;-80
2021/12/05 12:28:14;;;;;;;9.10;2.35;;;;;;;5.91;100.00;99529.00;5188095;28;20048;-77
2021/12/05 12:30:55;;;;;;;9.32;2.10;;;;;;;5.88;100.00;99531.69;5198809;28;20026;-78
2021/12/05 12:33:32;;;;;;;7.45;1.80;;;;;;;5.90;100.00;99538.50;5193109;28;20040;-79
2021/12/05 12:36:04;;;;;;;6.97;2.60;;;;;;;6.01;100.00;99538.13;5194069;28;20041;-76
2021/12/05 12:38:42;;;;;;;5.38;1.70;;;;;;;6.24;100.00;99535.63;5190634;28;20037;-78
2021/12/05 12:41:12;;;;;;;8.15;1.73;;;;;;;6.10;100.00;99540.44;5201059;28;20038;-78
2021/12/05 12:43:52;;;;;;;8.05;1.88;;;;;;;5.99;100.00;99539.94;5182619;28;20096;-79
2021/12/05 12:46:40;;;;;;;6.05;1.60;;;;;;;6.01;100.00;99538.13;5186274;28;20467;-78
2021/12/05 12:49:13;;;;;;;7.95;2.00;;;;;;;6.00;100.00;99552.88;5179756;28;20044;-77
2021/12/05 12:51:49;;;;;;;8.55;1.90;;;;;;;5.81;100.00;99545.75;5185501;28;20034;-80
2021/12/05 12:54:43;;;;;;;9.60;2.60;;;;;;;5.76;100.00;99555.38;5183089;28;20087;-78
2021/12/05 12:57:20;;;;;;;8.25;2.20;;;;;;;5.86;100.00;99556.78;5177679;28;20025;-80
2021/12/05 13:00:08;;;;;;;12.82;2.80;;;;;;;5.96;100.00;99556.47;5186995;28;20042;-80
2021/12/05 13:11:15;;;;;;;7.82;2.00;;;;;;;5.74;100.00;99557.19;5183294;28;20069;-79
2021/12/05 13:14:01;;;;;;;9.52;2.55;;;;;;;5.66;100.00;99559.16;5186669;28;20076;-78
2021/12/05 13:16:36;;;;;;;9.90;2.35;;;;;;;5.58;100.00;99555.97;5184914;28;20186;-80
2021/12/05 13:19:26;;;;;;;5.97;1.70;;;;;;;5.48;100.00;99549.38;5187840;28;20538;-78
2021/12/05 13:22:05;;;;;;;7.15;2.00;;;;;;;5.42;100.00;99562.53;5190629;28;20500;-79
2021/12/05 13:24:46;;;;;;;10.43;2.00;;;;;;;5.38;100.00;99565.25;5190401;28;20066;-79
2021/12/05 13:27:27;;;;;;;8.20;2.50;;;;;;;5.38;100.00;99566.13;5179576;28;20042;-79
2021/12/05 13:29:58;;;;;;;5.05;2.28;;;;;;;5.35;100.00;99563.59;5184852;28;20391;-80
2021/12/05 13:32:31;;;;;;;12.15;2.92;;;;;;;5.45;100.00;99567.63;5190381;28;20042;-79
2021/12/05 13:35:06;;;;;;;7.15;1.88;;;;;;;5.40;100.00;99577.28;5186731;28;20430;-79
2021/12/05 13:37:45;;;;;;;8.05;2.08;;;;;;;5.37;100.00;99568.75;5185282;28;20081;-78
2021/12/05 13:40:19;;;;;;;8.93;2.15;;;;;;;5.33;100.00;99573.16;5190294;28;20069;-79
2021/12/05 13:42:55;;;;;;;8.25;2.05;;;;;;;5.31;100.00;99571.53;5196196;28;20099;-78
2021/12/05 13:45:25;;;;;;;5.10;1.90;;;;;;;5.29;100.00;99576.75;5183914;28;20033;-76
2021/12/05 13:47:55;;;;;;;7.32;2.53;;;;;;;5.27;100.00;99585.44;5183886;28;20041;-78
2021/12/05 13:50:30;;;;;;;6.80;2.10;;;;;;;5.28;100.00;99587.16;5193473;28;20087;-79
2021/12/05 13:53:03;;;;;;;8.13;2.55;;;;;;;5.24;100.00;99589.00;5189207;28;20281;-77
2021/12/05 13:55:42;;;;;;;11.18;2.75;;;;;;;5.22;100.00;99590.78;5185640;28;20022;-79
2021/12/05 13:58:18;;;;;;;7.78;2.58;;;;;;;5.25;100.00;99603.66;5178329;28;20498;-79
2021/12/05 14:00:55;;;;;;;12.68;4.50;;;;;;;5.22;100.00;99613.22;5191026;28;20239;-78
2021/12/05 14:03:50;;;;;;;26.88;10.60;;;;;;;5.22;100.00;99616.69;5188737;28;20060;-79
2021/12/05 14:06:43;;;;;;;13.25;5.20;;;;;;;5.18;100.00;99615.06;5183022;28;20026;-79
2021/12/05 14:09:49;;;;;;;10.00;3.72;;;;;;;5.19;100.00;99613.34;5186553;28;20093;-80
2021/12/05 14:12:27;;;;;;;9.23;2.75;;;;;;;5.14;100.00;99618.63;5190424;28;20033;-78
2021/12/05 14:15:05;;;;;;;8.07;2.45;;;;;;;5.09;100.00;99620.53;5184959;28;20037;-78
2021/12/05 14:17:40;;;;;;;6.05;1.85;;;;;;;5.05;100.00;99626.69;5185566;28;20048;-80
2021/12/05 14:20:17;;;;;;;4.70;2.10;;;;;;;5.02;100.00;99631.09;5185754;28;20028;-79
2021/12/05 14:22:49;;;;;;;5.97;1.75;;;;;;;4.96;100.00;99628.69;5192034;28;20054;-77
2021/12/05 14:25:26;;;;;;;3.22;1.58;;;;;;;4.91;100.00;99631.41;5191290;28;20140;-77
2021/12/05 14:27:59;;;;;;;5.35;1.88;;;;;;;4.87;100.00;99642.75;5196577;28;20033;-79
2021/12/05 14:30:33;;;;;;;7.97;2.10;;;;;;;4.79;100.00;99652.44;5191013;28;20033;-79
2021/12/05 14:33:03;;;;;;;8.13;1.90;;;;;;;4.72;100.00;99650.91;5188509;28;20033;-80
2021/12/05 14:35:37;;;;;;;6.43;2.22;;;;;;;4.65;100.00;99659.72;5187587;28;20022;-79
2021/12/05 14:38:08;;;;;;;12.13;2.50;;;;;;;4.57;100.00;99666.84;5199498;28;20045;-77
2021/12/05 14:40:40;;;;;;;6.32;2.00;;;;;;;4.50;100.00;99673.03;5198403;28;20030;-79
2021/12/05 14:43:12;;;;;;;8.35;2.20;;;;;;;4.45;100.00;99672.31;5204688;28;20052;-79
2021/12/05 14:45:42;;;;;;;9.82;2.58;;;;;;;4.41;100.00;99680.19;5200649;28;20104;-77
2021/12/05 14:48:14;;;;;;;8.32;2.90;;;;;;;4.33;100.00;99693.31;5194426;28;20117;-81
2021/12/05 14:50:45;;;;;;;10.70;2.95;;;;;;;4.21;100.00;99695.34;5199928;28;20014;-78
2021/12/05 14:53:18;;;;;;;8.27;3.05;;;;;;;4.16;100.00;99700.63;5202805;28;20029;-80
2021/12/05 14:55:50;;;;;;;6.22;2.70;;;;;;;3.78;100.00;99712.75;5203184;28;20021;-77
2021/12/05 14:58:20;;;;;;;6.97;1.70;;;;;;;3.74;100.00;99711.97;5202086;28;20057;-80
2021/12/05 15:00:54;;;;;;;5.47;1.73;;;;;;;3.91;100.00;99715.03;5201707;28;20068;-77
2021/12/05 15:03:28;;;;;;;4.40;1.67;;;;;;;3.84;100.00;99713.47;5200099;28;20029;-79
2021/12/05 15:06:04;;;;;;;6.22;1.75;;;;;;;3.70;100.00;99718.09;5196279;28;20499;-80
2021/12/05 15:08:35;;;;;;;4.65;1.77;;;;;;;3.59;100.00;99721.78;5195883;28;20078;-78
2021/12/05 15:11:10;;;;;;;3.83;1.65;;;;;;;3.51;100.00;99728.84;5197098;28;20100;-79
2021/12/05 15:13:40;;;;;;;4.82;1.40;;;;;;;3.44;100.00;99729.00;5187020;28;20025;-79
2021/12/05 15:16:11;;;;;;;6.53;1.70;;;;;;;3.37;100.00;99732.59;5187681;28;20034;-81
2021/12/05 15:18:41;;;;;;;4.22;1.58;;;;;;;3.27;100.00;99736.22;5186117;28;20030;-79
2021/12/05 15:21:12;;;;;;;4.90;2.00;;;;;;;3.20;100.00;99732.91;5194744;28;20040;-78
2021/12/05 15:23:43;;;;;;;6.50;1.88;;;;;;;3.15;100.00;99739.91;5200875;28;20031;-80
2021/12/05 15:26:14;;;;;;;5.70;1.67;;;;;;;3.08;100.00;99737.47;5196473;28;20037;-79
2021/12/05 15:28:44;;;;;;;5.13;1.88;;;;;;;3.00;100.00;99740.19;5202328;28;20035;-79
2021/12/05 15:31:14;;;;;;;8.23;1.80;;;;;;;2.96;100.00;99740.28;5203602;28;20068;-78
2021/12/05 15:33:46;;;;;;;7.47;1.80;;;;;;;2.94;100.00;99752.34;5201379;28;20100;-80
2021/12/05 15:36:16;;;;;;;8.00;1.85;;;;;;;2.89;100.00;99761.91;5200565;28;20072;-79
2021/12/05 15:38:46;;;;;;;6.75;1.88;;;;;;;2.80;100.00;99768.09;5196878;28;20049;-80
2021/12/05 15:41:17;;;;;;;4.30;1.50;;;;;;;2.71;100.00;99767.41;5195005;28;20117;-79
2021/12/05 15:43:47;;;;;;;4.47;1.40;;;;;;;2.67;100.00;99773.50;5199155;28;20040;-78
2021/12/05 15:46:18;;;;;;;8.95;1.92;;;;;;;2.62;100.00;99777.84;5204415;28;20033;-78
2021/12/05 15:48:49;;;;;;;3.60;1.60;;;;;;;2.64;100.00;99778.69;5191426;28;20053;-78
2021/12/05 15:51:21;;;;;;;4.13;1.92;;;;;;;2.60;100.00;99777.03;5191138;28;20090;-79
2021/12/05 15:53:52;;;;;;;4.82;1.50;;;;;;;2.56;100.00;99778.84;5190331;28;20022;-79
2021/12/05 15:56:24;;;;;;;4.60;1.70;;;;;;;2.51;100.00;99774.63;5193356;28;20045;-78
2021/12/05 15:59:02;;;;;;;9.07;2.85;;;;;;;2.44;100.00;99789.34;5188041;28;20030;-79
2021/12/05 16:01:32;;;;;;;6.65;2.97;;;;;;;2.42;100.00;99788.50;5192655;28;20034;-79
2021/12/05 16:04:05;;;;;;;8.15;3.20;;;;;;;2.42;100.00;99796.25;5184337;28;20105;-78
2021/12/05 16:06:40;;;;;;;7.93;2.25;;;;;;;2.31;100.00;99798.13;5185672;28;20054;-80
2021/12/05 16:09:16;;;;;;;4.57;2.05;;;;;;;2.34;100.00;99800.66;5182383;28;20053;-80
2021/12/05 16:11:50;;;;;;;6.20;2.13;;;;;;;2.22;100.00;99807.72;5193368;28;20033;-78
2021/12/05 16:14:37;;;;;;;5.00;1.77;;;;;;;2.18;100.00;99811.22;5184155;28;20038;-79
2021/12/05 16:17:25;;;;;;;6.93;1.75;;;;;;;2.13;100.00;99810.44;5183885;28;20025;-79
2021/12/05 16:20:08;;;;;;;9.75;2.50;;;;;;;2.06;100.00;99806.22;5184339;28;20121;-79
2021/12/05 16:23:06;;;;;;;3.63;2.00;;;;;;;2.04;100.00;99814.00;5182733;28;20092;-81
2021/12/05 16:25:43;;;;;;;3.65;2.00;;;;;;;1.99;100.00;99817.50;5184564;28;20026;-80
2021/12/05 16:28:15;;;;;;;8.15;2.53;;;;;;;1.73;100.00;99826.44;5180373;28;20084;-81
2021/12/05 16:30:48;;;;;;;6.60;1.92;;;;;;;1.73;100.00;99832.44;5189018;28;20062;-80
2021/12/05 16:33:18;;;;;;;8.65;2.10;;;;;;;1.74;100.00;99833.28;5186225;28;20038;-78
2021/12/05 16:35:51;;;;;;;4.63;1.63;;;;;;;1.79;100.00;99838.34;5187193;28;20033;-79
2021/12/05 16:38:32;;;;;;;6.65;2.13;;;;;;;1.86;100.00;99842.56;5187119;28;20083;-77
2021/12/05 16:41:02;;;;;;;4.25;1.92;;;;;;;1.82;100.00;99840.06;5187650;28;20026;-79
2021/12/05 16:43:36;;;;;;;7.68;2.40;;;;;;;1.81;100.00;99836.63;5187457;28;20048;-81
2021/12/05 16:46:29;;;;;;;7.55;3.22;;;;;;;1.90;100.00;99841.66;5187794;28;20040;-78
2021/12/05 16:49:03;;;;;;;11.70;3.72;;;;;;;1.70;100.00;99858.22;5188867;28;20042;-81
2021/12/05 16:51:48;;;;;;;8.27;1.95;;;;;;;1.39;100.00;99858.59;5189109;28;20022;-80
2021/12/05 16:54:26;;;;;;;8.60;2.50;;;;;;;1.67;100.00;99862.53;5199466;28;20038;-78
2021/12/05 16:57:10;;;;;;;5.43;2.10;;;;;;;1.71;100.00;99865.06;5188912;28;20076;-78
2021/12/05 16:59:44;;;;;;;6.07;2.13;;;;;;;1.82;100.00;99860.66;5190029;28;20030;-81
2021/12/05 17:02:29;;;;;;;5.35;2.03;;;;;;;1.83;100.00;99870.09;5198759;28;20047;-78
2021/12/05 17:05:21;;;;;;;7.85;2.40;;;;;;;1.89;100.00;99864.84;5196736;28;20758;-79
2021/12/05 17:08:13;;;;;;;9.63;2.88;;;;;;;2.01;100.00;99867.28;5199985;28;20041;-77
2021/12/05 17:10:59;;;;;;;8.02;3.35;;;;;;;1.97;100.00;99869.03;5199579;28;20053;-79
2021/12/05 17:13:44;;;;;;;14.50;3.70;;;;;;;2.10;100.00;99880.03;5202013;28;20034;-81
2021/12/05 17:16:19;;;;;;;11.63;4.13;;;;;;;2.08;100.00;99881.78;5206114;28;20033;-81
2021/12/05 17:19:04;;;;;;;11.15;4.60;;;;;;;2.09;100.00;99884.34;5195002;28;20103;-78
2021/12/05 17:21:38;;;;;;;14.48;5.50;;;;;;;2.33;100.00;99893.47;5185407;28;20084;-80
2021/12/05 17:24:15;;;;;;;15.87;5.20;;;;;;;2.47;100.00;99889.84;5201538;28;20037;-81
2021/12/05 17:26:54;;;;;;;16.00;5.65;;;;;;;2.62;100.00;99893.91;5204321;28;20026;-79